Bancroft, Canada
Current Conditions -  °F | °C
As of 8:39 PM on Tuesday 21 Oct 2014 (Local Time) from CYPQ Reporting Station
Overcast Overcast  
Wind Chill: 36°   Ceiling: 2300
Heat Index: 43°   Visibility: 9mi
Dew Point: 39°   Wind: 14mph
Humidity: 87%   Direction: 20°NNE
Pressure: 30.11"   Gusts: NA
Location:  45.06°N, 77.85°W
Report Text: CYPQ 220039Z AUTO 02012KT 9SM SCT018 OVC023 06/04 A3011 RMK SLP201
Loading
Personal Weather Stations






























Interactive Weather Map
Tropical Storm Tracking
New forecast layout! Learn more

10-Day Weather Forecast

Advertisements
Track Severe Weather on mobile